Time;durP1;ratioP1;P1;durP2;ratioP2;P2;SDS_P1;SDS_P2;PMS_P1;PMS_P2;Temp;Humidity;BMP_temperature;BMP_pressure;BME280_temperature;BME280_humidity;BME280_pressure;Samples;Min_cycle;Max_cycle;Signal;HPM_P1;HPM_P2
2022/01/12 00:00:28;;;;;;;6.22;4.00;;;-11.90;78.50;-13.00;99616.00;;;;5021579;28;86936;-52
2022/01/12 00:02:54;;;;;;;4.60;3.47;;;-11.90;78.90;-13.00;99628.00;;;;5020517;28;87192;-54
2022/01/12 00:05:21;;;;;;;5.55;3.45;;;-11.90;78.90;-13.10;99631.00;;;;5020724;28;87049;-50
2022/01/12 00:07:50;;;;;;;5.38;3.72;;;-11.90;78.80;-13.10;99628.00;;;;5021773;28;87082;-53
2022/01/12 00:10:20;;;;;;;6.95;4.10;;;-11.90;79.70;-13.00;99628.00;;;;5017646;28;88429;-55
2022/01/12 00:12:46;;;;;;;6.40;4.07;;;-11.90;79.10;-13.10;99643.00;;;;5019071;28;89295;-53
2022/01/12 00:15:15;;;;;;;3.72;2.05;;;-11.90;78.90;-13.10;99628.00;;;;5018239;28;87014;-55
2022/01/12 00:17:42;;;;;;;2.80;1.52;;;-12.00;78.80;-13.10;99633.00;;;;5025136;28;87385;-54
2022/01/12 00:20:08;;;;;;;4.78;3.60;;;-12.00;78.80;-13.20;99630.00;;;;5024155;27;87657;-55
2022/01/12 00:22:36;;;;;;;5.93;3.95;;;-12.00;78.90;-13.20;99643.00;;;;5020536;28;87162;-52
2022/01/12 00:25:22;;;;;;;4.50;2.10;;;-12.00;79.10;-13.20;99647.00;;;;5020738;28;86973;-51
2022/01/12 00:33:23;;;;;;;5.57;2.15;;;-12.10;79.40;-13.30;99628.00;;;;5023778;28;88282;-54
2022/01/12 00:35:54;;;;;;;5.05;3.83;;;-12.20;79.00;-13.30;99644.00;;;;5017373;28;88304;-54
2022/01/12 00:38:23;;;;;;;4.13;1.83;;;-12.20;79.00;-13.30;99639.00;;;;5017000;28;87995;-54
2022/01/12 00:40:54;;;;;;;5.28;3.45;;;-12.10;79.40;-13.30;99637.00;;;;5009283;28;88576;-53
2022/01/12 00:43:25;;;;;;;4.18;1.90;;;-12.10;79.30;-13.30;99631.00;;;;5012476;28;88440;-61
2022/01/12 00:45:51;;;;;;;5.38;3.70;;;-12.20;78.70;-13.30;99624.00;;;;5019296;28;87566;-62
2022/01/12 00:48:18;;;;;;;4.03;1.90;;;-12.20;79.10;-13.30;99642.00;;;;5018996;28;87941;-57
2022/01/12 00:50:47;;;;;;;6.90;3.92;;;-12.20;79.60;-13.30;99628.00;;;;5020267;28;88572;-58
2022/01/12 00:53:14;;;;;;;7.13;2.63;;;-12.20;80.30;-13.40;99643.00;;;;5018580;28;87965;-58
2022/01/12 00:55:41;;;;;;;5.18;3.35;;;-12.20;80.30;-13.30;99636.00;;;;5019073;28;87999;-58
2022/01/12 00:58:07;;;;;;;6.35;4.45;;;-12.20;80.60;-13.40;99614.00;;;;5018571;28;87122;-58
2022/01/12 01:00:34;;;;;;;6.07;4.13;;;-12.20;80.50;-13.30;99620.00;;;;5017125;28;89535;-58
2022/01/12 01:03:00;;;;;;;5.65;3.42;;;-12.30;80.10;-13.40;99608.00;;;;5018257;28;88373;-55
2022/01/12 01:05:31;;;;;;;5.03;3.78;;;-12.30;79.80;-13.50;99627.00;;;;5017477;28;87074;-55
2022/01/12 01:07:58;;;;;;;4.80;2.53;;;-12.30;80.20;-13.50;99617.00;;;;5017437;28;87827;-55
2022/01/12 01:10:44;;;;;;;5.65;3.90;;;-12.30;80.30;-13.50;99619.00;;;;5017242;28;87663;-55
2022/01/12 01:13:13;;;;;;;6.90;2.40;;;-12.40;80.30;-13.50;99613.00;;;;5000274;28;89475;-55
2022/01/12 01:26:38;;;;;;;5.03;2.50;;;-12.30;80.60;-13.40;99620.00;;;;5015927;28;88374;-55
2022/01/12 01:29:05;;;;;;;6.50;4.22;;;-12.30;81.20;-13.40;99624.00;;;;5017306;28;88098;-55
2022/01/12 01:31:33;;;;;;;6.28;3.60;;;-12.30;81.00;-13.40;99613.00;;;;5016135;28;88617;-54
2022/01/12 01:34:09;;;;;;;7.15;4.00;;;-12.30;80.30;-13.40;99625.00;;;;5020897;28;87384;-55
2022/01/12 01:36:45;;;;;;;6.38;3.75;;;-12.30;80.50;-13.50;99615.00;;;;5014655;28;87036;-52
2022/01/12 01:39:16;;;;;;;4.80;3.75;;;-12.40;80.20;-13.50;99627.00;;;;4999802;28;87272;-54
2022/01/12 01:41:48;;;;;;;7.07;3.80;;;-12.40;80.30;-13.50;99614.00;;;;5015478;28;88610;-53
2022/01/12 01:54:56;;;;;;;5.95;3.90;;;-12.40;81.20;-13.50;99604.00;;;;5015915;28;88470;-57
2022/01/12 01:57:24;;;;;;;5.32;2.50;;;-12.40;81.10;-13.50;99601.00;;;;5001138;28;87189;-55
2022/01/12 01:59:52;;;;;;;5.32;2.25;;;-12.40;81.20;-13.60;99607.00;;;;5001055;28;87029;-54
2022/01/12 02:02:18;;;;;;;6.60;4.10;;;-12.40;80.90;-13.60;99619.00;;;;5016974;28;88586;-54
2022/01/12 02:04:46;;;;;;;5.53;2.63;;;-12.40;80.30;-13.70;99597.00;;;;4999485;28;89995;-54
2022/01/12 02:07:14;;;;;;;5.93;3.83;;;-12.50;79.80;-13.70;99604.00;;;;5017535;28;88018;-52
2022/01/12 02:09:41;;;;;;;4.72;2.53;;;-12.50;80.10;-13.60;99601.00;;;;5018867;28;86992;-55
2022/01/12 02:12:28;;;;;;;5.82;4.28;;;-12.50;80.20;-13.60;99590.00;;;;5005332;28;88986;-57
2022/01/12 02:14:56;;;;;;;6.30;4.18;;;-12.50;80.50;-13.60;99607.00;;;;5020855;28;87360;-57
2022/01/12 02:17:33;;;;;;;4.18;2.10;;;-12.50;80.60;-13.60;99596.00;;;;5019259;28;88258;-62
2022/01/12 02:36:25;;;;;;;4.63;2.63;;;-12.50;80.50;-13.70;99574.00;;;;5009890;28;90292;-53
2022/01/12 02:41:38;;;;;;;5.70;2.13;;;-12.50;81.00;-13.70;99597.00;;;;5001930;28;87474;-54
2022/01/12 02:54:48;;;;;;;4.37;2.30;;;-12.50;80.40;-13.60;99566.00;;;;5019886;28;89112;-54
2022/01/12 02:57:15;;;;;;;6.00;4.35;;;-12.40;80.70;-13.60;99575.00;;;;5019319;28;89506;-53
2022/01/12 03:00:07;;;;;;;7.20;5.15;;;-12.40;80.70;-13.60;99571.00;;;;5020793;28;88288;-52
2022/01/12 03:07:45;;;;;;;6.63;4.75;;;-12.40;80.30;-13.60;99580.00;;;;5018951;28;89450;-59
2022/01/12 03:10:13;;;;;;;5.60;2.90;;;-12.40;80.40;-13.60;99561.00;;;;5020032;28;89288;-57
2022/01/12 03:12:44;;;;;;;4.43;2.50;;;-12.40;80.00;-13.60;99553.00;;;;5018989;28;87033;-52
2022/01/12 03:15:13;;;;;;;4.95;2.20;;;-12.40;80.40;-13.50;99573.00;;;;5018252;28;89193;-56
2022/01/12 03:17:39;;;;;;;6.20;4.18;;;-12.40;80.30;-13.60;99561.00;;;;5018823;28;88240;-62
2022/01/12 03:20:08;;;;;;;5.32;2.58;;;-12.40;79.90;-13.60;99561.00;;;;5002134;28;87603;-62
2022/01/12 03:22:34;;;;;;;5.45;4.15;;;-12.50;80.00;-13.60;99566.00;;;;5015365;28;87357;-62
2022/01/12 03:25:01;;;;;;;8.43;4.25;;;-12.50;80.10;-13.60;99573.00;;;;5016758;28;88137;-64
2022/01/12 03:27:29;;;;;;;5.13;2.72;;;-12.50;80.10;-13.60;99562.00;;;;5002685;28;87517;-66
2022/01/12 03:29:56;;;;;;;5.47;2.03;;;-12.50;80.50;-13.60;99561.00;;;;5018251;28;87215;-63
2022/01/12 03:32:41;;;;;;;6.10;4.30;;;-12.40;80.50;-13.60;99577.00;;;;5020087;28;87163;-58
2022/01/12 03:35:12;;;;;;;6.32;4.72;;;-12.50;80.10;-13.60;99569.00;;;;5017092;28;89449;-57
2022/01/12 03:37:53;;;;;;;5.43;3.28;;;-12.50;80.00;-13.60;99556.00;;;;5016898;28;89672;-58
2022/01/12 03:40:21;;;;;;;6.78;3.80;;;-12.50;80.10;-13.60;99561.00;;;;5019844;28;87221;-58
2022/01/12 03:42:48;;;;;;;8.05;5.18;;;-12.40;80.20;-13.60;99562.00;;;;5018635;28;87268;-56
2022/01/12 03:45:15;;;;;;;6.28;4.97;;;-12.50;80.00;-13.60;99565.00;;;;5018340;28;88520;-57
2022/01/12 03:47:41;;;;;;;5.10;2.30;;;-12.40;80.10;-13.60;99567.00;;;;5019705;28;87279;-59
2022/01/12 03:50:07;;;;;;;7.15;5.20;;;-12.50;79.60;-13.70;99575.00;;;;5018582;28;88415;-61
2022/01/12 03:52:34;;;;;;;4.35;2.25;;;-12.50;80.00;-13.70;99557.00;;;;5001799;28;86454;-58
2022/01/12 03:55:00;;;;;;;5.95;2.35;;;-12.50;79.50;-13.70;99569.00;;;;5018097;28;88598;-58
2022/01/12 03:57:26;;;;;;;8.50;5.57;;;-12.50;80.00;-13.60;99566.00;;;;5019004;28;87688;-58
2022/01/12 03:59:52;;;;;;;7.07;2.92;;;-12.50;80.00;-13.60;99552.00;;;;5018051;28;89047;-58
2022/01/12 04:02:18;;;;;;;8.10;5.07;;;-12.50;79.40;-13.70;99569.00;;;;5000235;28;87884;-57
2022/01/12 04:05:07;;;;;;;7.85;3.30;;;-12.50;79.20;-13.70;99560.00;;;;5018014;28;88665;-57
2022/01/12 04:10:15;;;;;;;7.68;4.75;;;-12.60;80.40;-13.70;99557.00;;;;5016556;28;87050;-58
2022/01/12 04:12:41;;;;;;;6.68;2.60;;;-12.50;80.10;-13.70;99566.00;;;;5020090;28;87203;-56
2022/01/12 04:15:09;;;;;;;7.03;4.95;;;-12.50;80.50;-13.70;99572.00;;;;5017397;28;90020;-59
2022/01/12 04:17:35;;;;;;;8.80;5.38;;;-12.50;80.40;-13.70;99571.00;;;;5017832;28;88552;-56
2022/01/12 04:20:03;;;;;;;6.85;2.60;;;-12.50;80.10;-13.70;99566.00;;;;5002168;28;87657;-61
2022/01/12 04:25:15;;;;;;;7.90;3.00;;;-12.60;79.80;-13.70;99561.00;;;;5020544;28;89179;-64
2022/01/12 04:27:41;;;;;;;8.35;3.20;;;-12.60;80.10;-13.70;99580.00;;;;5018212;28;88388;-63
2022/01/12 04:30:08;;;;;;;7.85;5.82;;;-12.50;79.90;-13.70;99580.00;;;;5034579;27;87319;-63
2022/01/12 04:32:37;;;;;;;7.63;5.70;;;-12.50;80.00;-13.70;99570.00;;;;5017087;28;87313;-61
2022/01/12 04:35:05;;;;;;;7.05;5.00;;;-12.50;80.40;-13.70;99568.00;;;;5017309;28;88686;-62
2022/01/12 04:37:31;;;;;;;8.55;5.78;;;-12.60;80.40;-13.70;99570.00;;;;5017379;28;87837;-61
2022/01/12 04:39:58;;;;;;;7.07;5.30;;;-12.60;80.50;-13.70;99565.00;;;;5014493;28;87498;-53
2022/01/12 04:42:24;;;;;;;7.68;2.95;;;-12.60;80.50;-13.80;99578.00;;;;5015556;28;86302;-58
2022/01/12 04:44:59;;;;;;;8.35;5.75;;;-12.60;80.80;-13.70;99560.00;;;;5018274;28;88826;-58
2022/01/12 04:47:46;;;;;;;6.15;3.05;;;-12.60;80.90;-13.70;99561.00;;;;4992778;28;90288;-59
2022/01/12 04:50:12;;;;;;;8.38;5.93;;;-12.60;80.90;-13.80;99550.00;;;;5017845;28;89030;-61
2022/01/12 04:52:39;;;;;;;7.30;5.60;;;-12.60;81.20;-13.70;99548.00;;;;5016850;28;87066;-59
2022/01/12 04:55:05;;;;;;;8.95;6.10;;;-12.50;81.30;-13.70;99548.00;;;;5016913;28;88592;-58
2022/01/12 04:57:31;;;;;;;8.32;5.78;;;-12.60;80.90;-13.70;99569.00;;;;5017180;28;87072;-63
2022/01/12 05:00:16;;;;;;;7.03;5.35;;;-12.60;80.70;-13.70;99564.00;;;;5017645;28;88408;-62
2022/01/12 05:13:44;;;;;;;6.20;3.13;;;-12.60;79.50;-13.70;99569.00;;;;5017179;28;86995;-55
2022/01/12 05:16:10;;;;;;;7.53;5.18;;;-12.50;79.50;-13.70;99578.00;;;;4999030;28;90177;-56
2022/01/12 05:18:40;;;;;;;7.43;3.20;;;-12.60;79.20;-13.70;99568.00;;;;5017918;28;88626;-53
2022/01/12 05:21:08;;;;;;;6.90;3.13;;;-12.50;79.40;-13.70;99567.00;;;;5015886;28;86999;-54
2022/01/12 05:23:35;;;;;;;6.70;3.17;;;-12.50;79.20;-13.70;99553.00;;;;4998698;28;88176;-55
2022/01/12 05:26:03;;;;;;;6.68;5.20;;;-12.60;79.00;-13.70;99568.00;;;;5016236;28;88910;-56
2022/01/12 05:28:30;;;;;;;7.25;5.40;;;-12.60;78.60;-13.70;99575.00;;;;5015574;28;88302;-62
2022/01/12 05:30:57;;;;;;;7.80;4.75;;;-12.60;78.10;-13.70;99571.00;;;;5015679;28;87504;-63
2022/01/12 05:33:25;;;;;;;9.57;5.72;;;-12.50;78.30;-13.70;99573.00;;;;5016851;28;86603;-62
2022/01/12 05:35:55;;;;;;;7.28;4.70;;;-12.60;78.10;-13.70;99567.00;;;;5014667;28;88918;-63
2022/01/12 05:38:24;;;;;;;7.10;5.32;;;-12.50;78.10;-13.70;99567.00;;;;5031223;27;87139;-56
2022/01/12 05:40:56;;;;;;;7.75;5.25;;;-12.50;77.80;-13.70;99557.00;;;;5032902;27;88479;-56
2022/01/12 05:43:26;;;;;;;8.70;5.60;;;-12.50;77.90;-13.70;99572.00;;;;5017560;28;87302;-56
2022/01/12 05:45:56;;;;;;;7.40;5.20;;;-12.50;78.40;-13.70;99566.00;;;;5019636;28;88634;-55
2022/01/12 05:51:07;;;;;;;7.65;5.80;;;-12.50;78.40;-13.80;99577.00;;;;5021587;28;87421;-54
2022/01/12 05:53:34;;;;;;;7.25;5.22;;;-12.60;78.20;-13.80;99567.00;;;;5019640;28;87020;-55
2022/01/12 05:56:00;;;;;;;7.47;5.47;;;-12.60;78.60;-13.80;99569.00;;;;5018265;28;88824;-56
2022/01/12 05:58:28;;;;;;;7.47;5.40;;;-12.60;78.20;-13.80;99564.00;;;;5019827;28;87123;-54
2022/01/12 06:00:54;;;;;;;9.82;3.63;;;-12.60;78.50;-13.80;99556.00;;;;5021128;28;87007;-55
2022/01/12 06:03:20;;;;;;;9.13;5.88;;;-12.60;78.70;-13.70;99560.00;;;;5019194;28;87035;-52
2022/01/12 06:05:46;;;;;;;7.53;5.30;;;-12.60;79.00;-13.70;99563.00;;;;5018680;28;88694;-52
2022/01/12 06:08:13;;;;;;;7.38;5.50;;;-12.50;78.80;-13.70;99565.00;;;;5002640;28;90124;-52
2022/01/12 06:10:39;;;;;;;7.32;3.38;;;-12.50;78.70;-13.70;99565.00;;;;5014008;28;87506;-57
2022/01/12 06:13:05;;;;;;;9.10;3.65;;;-12.50;78.70;-13.70;99566.00;;;;5020056;28;87129;-53
2022/01/12 06:15:31;;;;;;;8.07;5.80;;;-12.50;79.20;-13.70;99570.00;;;;5019424;28;88960;-56
2022/01/12 06:17:58;;;;;;;6.65;5.50;;;-12.50;79.20;-13.70;99562.00;;;;5019312;28;88313;-58
2022/01/12 06:20:25;;;;;;;8.05;6.00;;;-12.50;79.20;-13.70;99579.00;;;;5020882;28;87500;-58
2022/01/12 06:23:14;;;;;;;8.48;3.90;;;-12.50;78.90;-13.60;99580.00;;;;5019174;28;86238;-56
2022/01/12 06:25:45;;;;;;;;;;;-12.50;78.70;-13.70;99577.00;;;;5019037;28;88537;-57
2022/01/12 06:28:34;;;;;;;8.30;3.13;;;-12.50;78.60;-13.70;99578.00;;;;5021209;28;87355;-62
2022/01/12 06:31:17;;;;;;;7.68;3.58;;;-12.50;79.00;-13.60;99575.00;;;;5018996;28;90802;-63
2022/01/12 06:33:48;;;;;;;6.97;3.60;;;-12.50;78.80;-13.70;99583.00;;;;5004581;28;87036;-63
2022/01/12 06:36:17;;;;;;;;;;;-12.50;78.70;-13.70;99574.00;;;;5020040;28;87616;-62
2022/01/12 06:38:44;;;;;;;6.32;3.15;;;-12.50;78.30;-13.70;99585.00;;;;5019114;28;87122;-62
2022/01/12 06:41:13;;;;;;;5.05;2.58;;;-12.60;78.40;-13.70;99577.00;;;;5035840;27;87093;-63
2022/01/12 06:43:39;;;;;;;6.63;3.40;;;-12.60;78.20;-13.80;99585.00;;;;5018551;28;87014;-62
2022/01/12 06:46:07;;;;;;;7.80;5.40;;;-12.70;77.60;-13.90;99572.00;;;;5019681;28;89025;-62
2022/01/12 06:48:35;;;;;;;7.35;3.40;;;-12.70;77.80;-13.80;99602.00;;;;5019390;28;87294;-62
2022/01/12 06:51:01;;;;;;;8.57;5.32;;;-12.70;77.80;-13.80;99583.00;;;;5018805;28;87894;-63
2022/01/12 06:53:28;;;;;;;7.30;5.85;;;-12.70;77.80;-13.90;99576.00;;;;5018681;28;87814;-63
2022/01/12 06:55:54;;;;;;;7.32;3.92;;;-12.70;78.10;-13.80;99583.00;;;;5014367;28;89355;-62
2022/01/12 06:58:20;;;;;;;7.32;5.18;;;-12.70;78.00;-13.90;99586.00;;;;5017094;28;88708;-63
2022/01/12 07:00:47;;;;;;;5.75;3.40;;;-12.70;78.10;-13.80;99595.00;;;;5018947;28;87250;-63
2022/01/12 07:03:15;;;;;;;7.55;5.43;;;-12.70;77.70;-13.80;99584.00;;;;5018512;28;87290;-63
2022/01/12 07:05:53;;;;;;;7.07;3.22;;;-12.60;78.00;-13.80;99584.00;;;;5015319;28;88592;-63
2022/01/12 07:08:19;;;;;;;6.57;5.30;;;-12.60;78.00;-13.80;99592.00;;;;5019089;28;87795;-63
2022/01/12 07:10:48;;;;;;;7.28;3.45;;;-12.60;77.60;-13.80;99596.00;;;;5018224;28;87112;-62
2022/01/12 07:13:19;;;;;;;;;;;-12.60;77.20;-13.80;99592.00;;;;5018714;28;86999;-63
2022/01/12 07:15:46;;;;;;;6.55;3.03;;;-12.60;77.10;-13.70;99574.00;;;;5019119;28;88613;-63
2022/01/12 07:18:14;;;;;;;7.10;3.28;;;-12.50;77.40;-13.70;99592.00;;;;5019228;28;88010;-63
2022/01/12 07:20:41;;;;;;;8.23;6.35;;;-12.50;77.50;-13.70;99584.00;;;;5018518;28;88064;-63
2022/01/12 07:23:09;;;;;;;8.85;6.53;;;-12.50;77.40;-13.60;99582.00;;;;5018927;28;87095;-63
2022/01/12 07:25:35;;;;;;;8.25;4.18;;;-12.40;77.50;-13.50;99566.00;;;;5020152;28;87933;-62
2022/01/12 07:28:01;;;;;;;11.90;3.38;;;-12.30;77.10;-13.30;99578.00;;;;5035250;27;88613;-64
2022/01/12 07:30:27;;;;;;;7.50;3.42;;;-12.20;77.00;-13.30;99563.00;;;;5018639;28;88562;-63
2022/01/12 07:32:53;;;;;;;8.35;5.68;;;-12.20;76.30;-13.40;99552.00;;;;5019325;28;87257;-63
2022/01/12 07:35:20;;;;;;;7.72;5.70;;;-12.30;76.30;-13.50;99568.00;;;;5017987;28;87610;-63
2022/01/12 07:37:46;;;;;;;8.20;3.75;;;-12.30;76.80;-13.50;99569.00;;;;5017840;28;87417;-63
2022/01/12 07:40:13;;;;;;;11.60;3.33;;;-12.30;77.10;-13.40;99578.00;;;;5017072;28;87482;-63
2022/01/12 07:42:40;;;;;;;9.35;6.22;;;-12.30;77.00;-13.40;99571.00;;;;5018989;28;88274;-63
2022/01/12 07:45:13;;;;;;;8.32;6.10;;;-12.20;76.50;-13.30;99580.00;;;;5018318;28;89784;-63
2022/01/12 07:47:39;;;;;;;7.22;3.72;;;-12.20;76.10;-13.30;99563.00;;;;5019368;28;88221;-63
2022/01/12 07:50:07;;;;;;;8.25;5.90;;;-12.30;75.90;-13.30;99586.00;;;;5018984;28;88807;-63
2022/01/12 07:52:34;;;;;;;8.30;3.70;;;-12.20;76.00;-13.30;99580.00;;;;5019227;28;87477;-62
2022/01/12 07:55:00;;;;;;;10.13;6.32;;;-12.20;75.70;-13.30;99567.00;;;;5019759;28;87551;-63
2022/01/12 07:57:28;;;;;;;8.07;5.95;;;-12.20;76.00;-13.20;99563.00;;;;5001345;28;87420;-63
2022/01/12 07:59:54;;;;;;;9.43;6.75;;;-12.10;75.60;-13.10;99562.00;;;;5019210;28;87416;-64
2022/01/12 08:02:20;;;;;;;9.77;6.57;;;-12.00;75.30;-13.10;99565.00;;;;5019927;28;87293;-63
2022/01/12 08:04:47;;;;;;;8.43;6.05;;;-12.00;75.00;-13.20;99568.00;;;;5018986;28;87734;-64
2022/01/12 08:07:13;;;;;;;8.40;6.03;;;-12.00;75.00;-13.30;99566.00;;;;5017826;28;87206;-63
2022/01/12 08:09:41;;;;;;;10.57;6.68;;;-12.20;75.40;-13.30;99554.00;;;;5018665;28;89702;-64
2022/01/12 08:12:09;;;;;;;8.73;3.95;;;-12.20;75.90;-13.20;99562.00;;;;5017109;28;87031;-63
2022/01/12 08:14:35;;;;;;;8.50;6.63;;;-12.20;76.00;-13.20;99546.00;;;;5018679;28;87644;-63
2022/01/12 08:17:03;;;;;;;9.90;6.93;;;-12.10;75.80;-13.20;99550.00;;;;5018314;28;88956;-62
2022/01/12 08:19:30;;;;;;;9.98;6.80;;;-12.00;75.50;-13.20;99538.00;;;;5018757;28;86969;-62
2022/01/12 08:21:57;;;;;;;9.73;6.70;;;-12.10;75.30;-13.20;99543.00;;;;5018920;28;88122;-62
2022/01/12 08:24:23;;;;;;;9.38;4.85;;;-12.10;75.40;-13.20;99524.00;;;;5018760;28;87680;-62
2022/01/12 08:26:49;;;;;;;8.23;4.60;;;-12.10;75.30;-13.30;99545.00;;;;5018367;28;87685;-62
2022/01/12 08:29:16;;;;;;;9.82;7.15;;;-12.20;75.00;-13.30;99519.00;;;;5019117;28;86975;-64
2022/01/12 08:31:43;;;;;;;11.23;7.55;;;-12.10;75.30;-13.30;99522.00;;;;5018830;28;87059;-63
2022/01/12 08:34:10;;;;;;;11.13;7.40;;;-12.20;75.80;-13.30;99527.00;;;;5017772;28;88744;-62
2022/01/12 08:36:39;;;;;;;10.30;6.63;;;-12.20;75.30;-13.30;99535.00;;;;5016945;28;87492;-62
2022/01/12 08:39:08;;;;;;;11.85;5.15;;;-12.10;75.40;-13.30;99529.00;;;;5017049;28;87854;-63
2022/01/12 08:41:38;;;;;;;9.77;7.35;;;-12.10;75.50;-13.20;99541.00;;;;5018300;28;88482;-62
2022/01/12 08:44:07;;;;;;;14.63;8.63;;;-12.00;75.40;-13.20;99535.00;;;;5016181;28;88017;-62
2022/01/12 08:46:33;;;;;;;10.18;7.10;;;-12.10;75.00;-13.20;99541.00;;;;5018224;28;87984;-64
2022/01/12 08:48:59;;;;;;;12.30;8.60;;;-12.00;75.20;-13.20;99538.00;;;;5017687;28;87626;-62
2022/01/12 08:51:26;;;;;;;13.02;8.30;;;-12.10;75.10;-13.20;99533.00;;;;5018080;28;86465;-63
2022/01/12 08:53:52;;;;;;;10.20;7.80;;;-12.20;75.10;-13.20;99536.00;;;;5016682;28;88279;-63
2022/01/12 08:56:19;;;;;;;12.40;8.00;;;-12.10;75.50;-13.10;99521.00;;;;5017234;28;88333;-63
2022/01/12 08:58:47;;;;;;;11.77;8.30;;;-12.10;75.50;-13.20;99530.00;;;;5017826;28;88483;-63
2022/01/12 09:01:14;;;;;;;12.13;7.97;;;-12.10;75.40;-13.20;99517.00;;;;5018328;28;87368;-63
2022/01/12 09:03:40;;;;;;;10.20;7.45;;;-12.10;75.50;-13.20;99523.00;;;;5017968;28;87568;-63
2022/01/12 09:06:07;;;;;;;10.00;8.00;;;-12.10;75.70;-13.20;99521.00;;;;5016357;28;88843;-63
2022/01/12 09:08:36;;;;;;;11.50;7.25;;;-12.10;75.70;-13.10;99503.00;;;;5018460;28;87029;-64
2022/01/12 09:11:03;;;;;;;12.32;8.05;;;-12.00;76.10;-13.10;99515.00;;;;5020059;28;87289;-63
2022/01/12 09:13:30;;;;;;;10.40;7.85;;;-12.10;75.70;-13.30;99515.00;;;;5017266;28;87969;-64
2022/01/12 09:15:56;;;;;;;10.32;8.45;;;-12.10;76.00;-13.30;99519.00;;;;5018336;28;87464;-63
2022/01/12 09:18:22;;;;;;;11.30;8.20;;;-12.20;76.00;-13.30;99508.00;;;;5019768;28;87418;-63
2022/01/12 09:20:53;;;;;;;9.95;7.38;;;-12.20;76.00;-13.30;99510.00;;;;5020030;28;87597;-63
2022/01/12 09:23:20;;;;;;;10.70;7.10;;;-12.20;76.00;-13.30;99525.00;;;;5021454;28;88834;-62
2022/01/12 09:25:46;;;;;;;10.38;7.90;;;-12.20;76.00;-13.30;99503.00;;;;5020226;28;88503;-63
2022/01/12 09:28:13;;;;;;;10.60;7.57;;;-12.20;76.00;-13.50;99506.00;;;;5004645;28;88380;-62
2022/01/12 09:30:39;;;;;;;11.20;8.27;;;-12.30;75.90;-13.40;99501.00;;;;5019749;28;87488;-64
2022/01/12 09:33:06;;;;;;;10.13;7.90;;;-12.30;76.00;-13.40;99499.00;;;;5025208;28;87717;-63
2022/01/12 09:35:33;;;;;;;11.50;8.20;;;-12.20;76.50;-13.30;99511.00;;;;5020811;28;88648;-63
2022/01/12 09:37:59;;;;;;;12.00;8.27;;;-12.20;76.00;-13.30;99488.00;;;;5020603;28;87050;-63
2022/01/12 09:40:25;;;;;;;11.77;7.43;;;-12.10;76.10;-13.10;99501.00;;;;5021223;28;86698;-63
2022/01/12 09:42:52;;;;;;;12.57;8.35;;;-12.00;75.90;-13.10;99462.00;;;;5017211;28;87744;-63
2022/01/12 09:45:19;;;;;;;9.73;8.07;;;-12.00;75.60;-13.10;99480.00;;;;5021467;28;87576;-63
2022/01/12 09:47:49;;;;;;;10.75;7.72;;;-12.00;75.80;-13.30;99476.00;;;;5021298;28;88374;-63
2022/01/12 09:50:20;;;;;;;11.40;8.20;;;-12.20;75.80;-13.30;99468.00;;;;5021477;28;87006;-62
2022/01/12 09:52:47;;;;;;;10.80;4.65;;;-12.30;75.90;-13.40;99460.00;;;;5020281;28;87728;-63
2022/01/12 09:55:13;;;;;;;9.23;4.47;;;-12.30;76.00;-13.40;99452.00;;;;5019676;28;87384;-62
2022/01/12 09:57:39;;;;;;;11.82;8.15;;;-12.30;76.80;-13.30;99467.00;;;;5019985;28;87132;-64
2022/01/12 10:00:07;;;;;;;9.68;5.25;;;-12.20;76.70;-13.20;99464.00;;;;5021334;28;87506;-64
2022/01/12 10:02:41;;;;;;;10.77;7.70;;;-12.10;76.10;-13.30;99465.00;;;;5020560;28;87598;-64
2022/01/12 10:05:10;;;;;;;9.65;5.30;;;-12.10;76.10;-13.20;99456.00;;;;5020986;28;87333;-63
2022/01/12 10:07:37;;;;;;;11.68;8.38;;;-12.10;76.10;-13.20;99466.00;;;;5021347;28;87938;-63
2022/01/12 10:10:08;;;;;;;10.05;7.65;;;-12.20;76.00;-13.10;99464.00;;;;5020957;28;87122;-63
2022/01/12 10:12:34;;;;;;;12.38;8.70;;;-12.00;76.20;-13.10;99457.00;;;;5000920;28;88477;-63
2022/01/12 10:15:10;;;;;;;11.02;8.13;;;-12.00;76.10;-13.10;99460.00;;;;5019175;28;89544;-63
2022/01/12 10:17:40;;;;;;;11.30;9.07;;;-11.90;76.30;-13.00;99461.00;;;;5020284;28;88368;-64
2022/01/12 10:20:23;;;;;;;11.48;8.07;;;-11.90;76.30;-12.90;99470.00;;;;5019912;28;87056;-63
2022/01/12 10:23:10;;;;;;;9.10;7.47;;;-11.80;75.70;-12.90;99461.00;;;;5016887;28;88549;-62
2022/01/12 10:25:37;;;;;;;10.27;7.47;;;-11.80;75.30;-12.80;99454.00;;;;5020894;28;87886;-63
2022/01/12 10:28:18;;;;;;;12.55;8.00;;;-11.70;75.10;-12.80;99453.00;;;;5019079;28;87083;-63
2022/01/12 10:31:02;;;;;;;12.25;8.52;;;-11.70;74.50;-12.90;99452.00;;;;5019335;28;86391;-63
2022/01/12 10:33:33;;;;;;;14.18;5.32;;;-11.70;74.80;-13.00;99450.00;;;;5018406;28;88105;-63
2022/01/12 10:36:06;;;;;;;12.75;7.97;;;-11.90;74.90;-12.90;99449.00;;;;5020066;28;88010;-62
2022/01/12 10:38:32;;;;;;;14.77;8.30;;;-11.80;75.50;-12.90;99447.00;;;;5019378;28;89720;-64
2022/01/12 10:41:05;;;;;;;13.40;8.18;;;-11.80;75.50;-12.80;99438.00;;;;5020324;28;87340;-63
2022/01/12 10:43:43;;;;;;;11.43;8.18;;;-11.70;75.50;-12.80;99440.00;;;;5019969;28;87854;-63
2022/01/12 10:46:15;;;;;;;11.32;8.48;;;-11.70;75.30;-12.70;99440.00;;;;5019862;28;89249;-62
2022/01/12 10:48:48;;;;;;;12.80;8.70;;;-11.60;75.10;-12.80;99448.00;;;;5020719;28;87030;-63
2022/01/12 10:51:17;;;;;;;16.25;9.55;;;-11.70;75.10;-12.80;99454.00;;;;5020805;28;87204;-63
2022/01/12 10:53:43;;;;;;;11.88;8.75;;;-11.80;75.00;-12.80;99450.00;;;;5019327;28;87619;-64
2022/01/12 10:56:22;;;;;;;11.80;8.65;;;-11.80;75.50;-12.80;99436.00;;;;5020789;28;87345;-63
2022/01/12 10:58:52;;;;;;;13.75;8.25;;;-11.70;75.80;-12.70;99448.00;;;;5018590;28;87265;-63
2022/01/12 11:01:22;;;;;;;14.35;9.57;;;-11.60;75.60;-12.60;99439.00;;;;5020892;28;87407;-63
2022/01/12 11:03:49;;;;;;;10.85;8.05;;;-11.50;75.30;-12.70;99446.00;;;;5030645;28;89778;-63
2022/01/12 11:06:16;;;;;;;13.52;8.77;;;-11.60;74.80;-12.70;99431.00;;;;5019373;28;88483;-63
2022/01/12 11:08:45;;;;;;;11.25;8.85;;;-11.60;74.80;-12.80;99437.00;;;;5020172;28;87048;-64
2022/01/12 11:11:11;;;;;;;11.30;9.07;;;-11.70;75.00;-12.70;99416.00;;;;5021699;28;86949;-64
2022/01/12 11:13:38;;;;;;;12.45;8.45;;;-11.60;75.20;-12.70;99410.00;;;;5016080;28;88201;-63
2022/01/12 11:16:04;;;;;;;12.43;8.55;;;-11.60;75.00;-12.70;99400.00;;;;5019929;28;87055;-64
2022/01/12 11:18:39;;;;;;;15.07;9.32;;;-11.60;74.80;-12.70;99404.00;;;;5018844;28;87371;-64
2022/01/12 11:21:21;;;;;;;13.30;9.38;;;-11.70;75.10;-12.80;99396.00;;;;5020215;28;86486;-63
2022/01/12 11:23:51;;;;;;;12.75;8.73;;;-11.70;75.20;-12.70;99407.00;;;;5020621;28;89052;-63
2022/01/12 11:26:22;;;;;;;13.98;9.35;;;-11.70;75.40;-12.70;99403.00;;;;5017636;28;87466;-63
2022/01/12 11:28:51;;;;;;;11.38;8.40;;;-11.70;75.70;-12.70;99385.00;;;;5019715;28;88603;-64
2022/01/12 11:31:25;;;;;;;13.07;8.73;;;-11.70;75.60;-12.80;99397.00;;;;5019374;28;88321;-63
2022/01/12 11:33:52;;;;;;;11.60;7.88;;;-11.70;75.60;-12.80;99388.00;;;;5016764;28;87036;-63
2022/01/12 11:36:39;;;;;;;12.70;9.07;;;-11.70;75.80;-12.80;99382.00;;;;5020234;28;87528;-63
2022/01/12 11:39:12;;;;;;;13.48;9.38;;;-11.70;76.00;-12.80;99388.00;;;;5016309;28;86989;-63
2022/01/12 11:41:42;;;;;;;10.90;8.57;;;-11.70;76.00;-12.70;99385.00;;;;5017411;28;87093;-63
2022/01/12 11:44:13;;;;;;;12.10;8.37;;;-11.60;75.70;-12.70;99389.00;;;;5018665;28;87891;-64
2022/01/12 11:46:59;;;;;;;11.30;8.93;;;-11.60;75.30;-12.80;99422.00;;;;5020270;28;87406;-63
2022/01/12 11:49:38;;;;;;;12.02;8.40;;;-11.70;75.20;-12.90;99409.00;;;;5016800;28;87120;-62
2022/01/12 11:52:27;;;;;;;12.65;8.88;;;-11.80;75.00;-13.00;99415.00;;;;5016869;28;86990;-63
2022/01/12 11:55:08;;;;;;;14.25;8.65;;;-11.90;75.40;-13.10;99403.00;;;;5016818;28;88812;-63
2022/01/12 11:57:38;;;;;;;12.65;8.98;;;-12.00;75.60;-13.10;99406.00;;;;5015165;28;88347;-63
2022/01/12 12:00:14;;;;;;;13.82;8.93;;;-12.00;76.00;-13.10;99402.00;;;;5018681;28;87362;-63
2022/01/12 12:02:44;;;;;;;11.98;8.93;;;-12.00;76.10;-13.10;99386.00;;;;5015923;28;88015;-62
2022/01/12 12:05:18;;;;;;;12.40;8.90;;;-12.00;76.20;-13.10;99398.00;;;;5019455;28;87506;-63
2022/01/12 12:07:51;;;;;;;11.02;8.00;;;-12.00;76.20;-13.10;99388.00;;;;5018092;28;87332;-63